createdAt,value
2022-11-09T00:00:23.456Z,5.9
2022-11-09T00:05:59.636Z,5.9
2022-11-09T00:11:10.435Z,5.9
2022-11-09T00:16:48.929Z,6
2022-11-09T00:22:16.031Z,6.1
2022-11-09T00:27:38.381Z,6.1
2022-11-09T00:33:01.813Z,6.2
2022-11-09T00:38:24.215Z,6.3
2022-11-09T00:44:01.517Z,6.3
2022-11-09T00:49:39.602Z,6.4
2022-11-09T00:55:16.071Z,6.4
2022-11-09T01:00:53.415Z,6.5
2022-11-09T01:06:33.853Z,6.6
2022-11-09T01:12:11.706Z,6.6
2022-11-09T01:17:50.213Z,6.6
2022-11-09T01:23:12.533Z,6.6
2022-11-09T01:28:34.033Z,6.7
2022-11-09T01:33:56.257Z,6.7
2022-11-09T01:39:33.780Z,6.8
2022-11-09T01:45:10.561Z,6.8
2022-11-09T01:50:48.214Z,6.9
2022-11-09T01:56:26.440Z,6.9
2022-11-09T02:01:48.067Z,6.9
2022-11-09T02:07:25.738Z,7
2022-11-09T02:13:03.309Z,7
2022-11-09T02:18:25.071Z,7.1
2022-11-09T02:24:02.864Z,7.1
2022-11-09T02:29:44.502Z,7.1
2022-11-09T02:35:06.271Z,7.2
2022-11-09T02:40:12.688Z,7.2
2022-11-09T02:45:53.373Z,7.2
2022-11-09T02:51:14.830Z,7.3
2022-11-09T02:56:36.868Z,7.2
2022-11-09T03:01:43.724Z,7.2
2022-11-09T03:07:05.554Z,7.2
2022-11-09T03:12:42.745Z,7.1
2022-11-09T03:18:04.389Z,7.1
2022-11-09T03:23:10.119Z,7
2022-11-09T03:28:16.187Z,6.9
2022-11-09T03:33:24.505Z,6.9
2022-11-09T03:38:30.662Z,6.9
2022-11-09T03:43:38.132Z,6.8
2022-11-09T03:48:45.290Z,6.8
2022-11-09T03:54:06.114Z,6.7
2022-11-09T03:59:27.732Z,6.6
2022-11-09T04:04:03.818Z,6.6
2022-11-09T04:08:54.519Z,6.5
2022-11-09T04:14:00.764Z,6.4
2022-11-09T04:19:07.719Z,6.4
2022-11-09T04:24:18.168Z,6.3
2022-11-09T04:29:24.433Z,6.2
2022-11-09T04:34:49.958Z,6.1
2022-11-09T04:39:41.649Z,6
2022-11-09T04:45:03.537Z,5.9
2022-11-09T04:49:54.812Z,5.8
2022-11-09T04:54:49.519Z,5.8
2022-11-09T04:59:56.682Z,5.7
2022-11-09T05:04:47.886Z,5.6
2022-11-09T05:09:39.034Z,5.6
2022-11-09T05:14:50.817Z,5.6
2022-11-09T05:19:26.746Z,5.6
2022-11-09T05:24:33.553Z,5.6
2022-11-09T05:29:56.111Z,5.7
2022-11-09T05:34:48.722Z,5.8
2022-11-09T05:39:56.869Z,5.9
2022-11-09T05:44:33.115Z,6
2022-11-09T05:50:29.562Z,6.1
2022-11-09T05:55:19.520Z,6.4
2022-11-09T05:59:55.468Z,6.6
2022-11-09T06:04:47.083Z,6.9
2022-11-09T06:09:38.867Z,7.4
2022-11-09T06:14:20.667Z,7.8
2022-11-09T06:18:56.685Z,8.4
2022-11-09T06:23:53.442Z,9.1
2022-11-09T06:28:29.676Z,9.7
2022-11-09T06:33:21.368Z,10.3
2022-11-09T06:38:01.454Z,10.9
2022-11-09T06:42:38.308Z,11.5
2022-11-09T06:47:30.335Z,12.3
2022-11-09T06:52:08.243Z,13.4
2022-11-09T06:56:28.682Z,15.1
2022-11-09T07:00:48.990Z,17.1
2022-11-09T07:05:47.054Z,19.2
2022-11-09T07:10:40.459Z,21.4
2022-11-09T07:15:32.140Z,23.4
2022-11-09T07:20:23.462Z,25.3
2022-11-09T07:25:01.469Z,29.6
2022-11-09T07:29:21.418Z,35
2022-11-09T07:34:50.256Z,41
2022-11-09T07:39:16.163Z,45.4
2022-11-09T07:43:41.491Z,49.9
2022-11-09T07:48:32.368Z,51.3
2022-11-09T07:53:24.225Z,51.9
2022-11-09T07:58:05.428Z,51.4
2022-11-09T08:02:57.584Z,50.4
2022-11-09T08:07:32.812Z,49.4
2022-11-09T08:12:08.838Z,50
2022-11-09T08:16:59.939Z,54.3
2022-11-09T08:21:52.055Z,62
2022-11-09T08:26:33.822Z,56.9
2022-11-09T08:31:11.541Z,44.1
2022-11-09T08:35:52.040Z,51
2022-11-09T08:40:29.483Z,61
2022-11-09T08:45:04.251Z,51
2022-11-09T08:49:40.220Z,44.5
2022-11-09T08:54:31.491Z,47.2
2022-11-09T08:59:38.332Z,53.6
2022-11-09T09:04:46.221Z,58.6
2022-11-09T09:09:43.962Z,50.1
2022-11-09T09:14:35.901Z,44.8
2022-11-09T09:19:27.743Z,45.5
2022-11-09T09:24:24.096Z,48.7
2022-11-09T09:29:31.196Z,55.6
2022-11-09T09:34:58.724Z,59.8
2022-11-09T09:40:24.172Z,51.4
2022-11-09T09:45:31.185Z,52.1
2022-11-09T09:50:53.845Z,63.7
2022-11-09T09:56:37.480Z,60.6
2022-11-09T10:01:59.935Z,58.1
2022-11-09T10:07:23.097Z,59
2022-11-09T10:12:51.012Z,59.4
2022-11-09T10:18:28.885Z,60.3
2022-11-09T10:24:06.424Z,59.8
2022-11-09T10:31:02.212Z,61.3
2022-11-09T10:36:25.070Z,61.3
2022-11-09T10:41:48.007Z,61.6
2022-11-09T10:47:26.551Z,61.8
2022-11-09T10:53:04.731Z,62.4
2022-11-09T10:59:06.611Z,62.4
2022-11-09T11:04:29.237Z,62.7
2022-11-09T11:09:39.239Z,62.4
2022-11-09T11:15:14.380Z,62.8
2022-11-09T11:20:21.844Z,62.7
2022-11-09T11:26:05.925Z,62.4
2022-11-09T11:31:43.529Z,62
2022-11-09T11:37:54.424Z,61.9
2022-11-09T11:43:32.028Z,61.8
2022-11-09T11:49:43.315Z,62.1
2022-11-09T11:55:28.096Z,62.1
2022-11-09T12:01:05.833Z,61.6
2022-11-09T12:06:17.413Z,61.6
2022-11-09T12:11:56.206Z,60.8
2022-11-09T12:17:34.934Z,60
2022-11-09T12:23:02.274Z,60.8
2022-11-09T12:28:45.988Z,63.2
2022-11-09T12:33:58.467Z,64.8
2022-11-09T12:39:20.765Z,65.6
2022-11-09T12:44:45.716Z,65.8
2022-11-09T12:50:07.858Z,65.8
2022-11-09T12:55:29.043Z,65.6
2022-11-09T13:00:54.781Z,64.9
2022-11-09T13:06:19.165Z,64.2
2022-11-09T13:11:47.987Z,63.3
2022-11-09T13:17:09.957Z,62.1
2022-11-09T13:23:00.847Z,60.7
2022-11-09T13:29:13.138Z,58.9
2022-11-09T13:34:52.414Z,57.6
2022-11-09T13:40:30.743Z,55.8
2022-11-09T13:45:55.579Z,53.9
2022-11-09T13:56:43.950Z,50.3
2022-11-09T14:02:26.234Z,48.3
2022-11-09T14:08:04.595Z,46.1
2022-11-09T14:13:45.863Z,44.1
2022-11-09T14:19:25.197Z,42.2
2022-11-09T14:25:02.889Z,40.3
2022-11-09T14:30:41.087Z,38.3
2022-11-09T14:36:18.899Z,36.4
2022-11-09T14:41:56.981Z,34.5
2022-11-09T14:47:35.138Z,32.7
2022-11-09T14:53:18.394Z,30.7
2022-11-09T14:59:02.035Z,28.7
2022-11-09T15:04:46.066Z,26.8
2022-11-09T15:10:12.552Z,25.2
2022-11-09T15:15:55.322Z,23.6
2022-11-09T15:21:24.575Z,22.1
2022-11-09T15:26:48.503Z,20.9
2022-11-09T15:31:58.360Z,19.8
2022-11-09T15:37:06.048Z,18.8
2022-11-09T15:42:28.535Z,17.8
2022-11-09T15:47:54.281Z,16.9
2022-11-09T15:53:18.414Z,16.1
2022-11-09T15:59:01.774Z,15.4
2022-11-09T16:04:30.803Z,14.9
2022-11-09T16:10:12.297Z,14.3
2022-11-09T16:15:55.025Z,13.8
2022-11-09T16:21:17.309Z,13.3
2022-11-09T16:26:54.494Z,12.9
2022-11-09T16:33:09.805Z,12.4
2022-11-09T16:39:20.893Z,11.9
2022-11-09T16:44:57.953Z,11.4
2022-11-09T16:50:38.871Z,10.9
2022-11-09T16:56:19.161Z,10.4
2022-11-09T17:07:49.307Z,9.9
2022-11-09T17:13:27.697Z,9.8
2022-11-09T17:18:51.338Z,9.6
2022-11-09T17:24:31.547Z,9.4
2022-11-09T17:29:39.983Z,9.1
2022-11-09T17:35:01.876Z,8.9
2022-11-09T17:40:41.237Z,8.6
2022-11-09T17:46:03.959Z,8.3
2022-11-09T17:51:28.077Z,8.1
2022-11-09T17:56:22.428Z,7.9
2022-11-09T18:01:45.518Z,7.8
2022-11-09T18:07:23.590Z,7.5
2022-11-09T18:13:00.153Z,7.3
2022-11-09T18:18:37.761Z,7.1
2022-11-09T18:23:47.626Z,7
2022-11-09T18:29:31.498Z,6.8
2022-11-09T18:35:09.807Z,6.8
2022-11-09T18:40:34.259Z,6.6
2022-11-09T18:45:56.454Z,6.4
2022-11-09T18:51:22.069Z,6.3
2022-11-09T18:56:29.500Z,6.2
2022-11-09T19:01:37.453Z,6.1
2022-11-09T19:07:01.130Z,5.9
2022-11-09T19:12:23.779Z,5.8
2022-11-09T19:17:46.173Z,5.8
2022-11-09T19:22:53.359Z,5.6
2022-11-09T19:28:20.781Z,5.5
2022-11-09T19:33:34.870Z,5.4
2022-11-09T19:40:07.730Z,5.3
2022-11-09T19:45:47.006Z,5.1
2022-11-09T19:50:53.772Z,5
2022-11-09T19:56:17.830Z,4.9
2022-11-09T20:01:40.366Z,4.8
2022-11-09T20:07:19.190Z,4.7
2022-11-09T20:12:58.875Z,4.6
2022-11-09T20:18:20.950Z,4.6
2022-11-09T20:23:43.922Z,4.5
2022-11-09T20:28:50.406Z,4.5
2022-11-09T20:33:44.369Z,4.5
2022-11-09T20:39:13.001Z,4.4
2022-11-09T20:44:19.410Z,4.4
2022-11-09T20:50:36.466Z,4.4
2022-11-09T20:55:18.594Z,4.3
2022-11-09T21:00:09.727Z,4.2
2022-11-09T21:05:00.736Z,4.1
2022-11-09T21:09:54.834Z,4
2022-11-09T21:14:30.300Z,3.9
2022-11-09T21:19:36.954Z,3.8
2022-11-09T21:24:46.268Z,3.7
2022-11-09T21:29:53.169Z,3.6
2022-11-09T21:35:00.333Z,3.6
2022-11-09T21:40:07.081Z,3.5
2022-11-09T21:45:28.772Z,3.4
2022-11-09T21:50:50.725Z,3.4
2022-11-09T21:55:41.301Z,3.4
2022-11-09T22:00:47.988Z,3.4
2022-11-09T22:05:39.918Z,3.4
2022-11-09T22:11:18.204Z,3.3
2022-11-09T22:16:25.172Z,3.3
2022-11-09T22:21:15.727Z,3.3
2022-11-09T22:26:59.888Z,3.3
2022-11-09T22:32:22.034Z,3.3
2022-11-09T22:37:44.084Z,3.3
2022-11-09T22:42:55.696Z,3.3
2022-11-09T22:48:02.698Z,3.2
2022-11-09T22:53:44.119Z,3.1
2022-11-09T22:58:50.804Z,3
2022-11-09T23:04:28.945Z,2.9
2022-11-09T23:09:50.524Z,2.9
2022-11-09T23:15:27.714Z,2.8
2022-11-09T23:20:52.285Z,2.6
2022-11-09T23:26:29.757Z,2.6
2022-11-09T23:32:07.483Z,2.5
2022-11-09T23:37:36.002Z,2.4
2022-11-09T23:43:12.886Z,2.3
2022-11-09T23:48:53.437Z,2.1
2022-11-09T23:53:59.472Z,2.1
2022-11-09T23:59:08.044Z,2
